Time;durP1;ratioP1;P1;durP2;ratioP2;P2;SDS_P1;SDS_P2;PMS_P1;PMS_P2;Temp;Humidity;BMP_temperature;BMP_pressure;BME280_temperature;BME280_humidity;BME280_pressure;Samples;Min_cycle;Max_cycle;Signal;HPM_P1;HPM_P2
2024/03/09 00:01:39;;;;;;;56.50;25.73;;;;;;;-0.86;55.65;100949.78;124221;1099;104438;-79
2024/03/09 00:04:10;;;;;;;54.40;25.27;;;;;;;-0.89;55.48;100946.94;125038;1099;104150;-79
2024/03/09 00:06:43;;;;;;;58.13;25.50;;;;;;;-0.93;56.17;100944.09;123983;1099;104169;-79
2024/03/09 00:09:14;;;;;;;57.60;25.87;;;;;;;-1.00;56.75;100948.55;123948;1099;104676;-79
2024/03/09 00:11:46;;;;;;;56.13;24.43;;;;;;;-1.05;55.98;100947.25;123969;1099;104289;-79
2024/03/09 00:14:17;;;;;;;58.43;26.57;;;;;;;-1.10;56.09;100947.73;123696;1099;104320;-78
2024/03/09 00:16:48;;;;;;;56.97;26.00;;;;;;;-1.12;56.02;100951.86;123829;1099;104271;-78
2024/03/09 00:19:20;;;;;;;54.00;24.63;;;;;;;-1.16;56.18;100951.45;124110;1099;104248;-78
2024/03/09 00:21:52;;;;;;;55.47;25.07;;;;;;;-1.20;56.65;100944.20;124110;1099;104258;-79
2024/03/09 00:24:23;;;;;;;57.90;26.27;;;;;;;-1.20;55.71;100941.63;123866;1099;104267;-78
2024/03/09 00:26:55;;;;;;;56.33;25.93;;;;;;;-1.18;56.89;100945.27;123963;1099;104351;-78
2024/03/09 00:29:27;;;;;;;56.23;24.97;;;;;;;-1.23;56.84;100939.70;123494;1099;104303;-78
2024/03/09 00:31:59;;;;;;;55.20;25.10;;;;;;;-1.25;57.01;100942.89;123827;1099;104260;-79
2024/03/09 00:34:30;;;;;;;54.13;24.03;;;;;;;-1.31;56.10;100939.02;123793;1099;104267;-78
2024/03/09 00:37:02;;;;;;;52.30;23.13;;;;;;;-1.37;56.44;100940.11;123559;1099;104239;-78
2024/03/09 00:39:33;;;;;;;54.40;24.97;;;;;;;-1.43;56.55;100937.91;123777;1099;104482;-78
2024/03/09 00:42:08;;;;;;;53.80;24.73;;;;;;;-1.46;56.17;100930.80;123944;1099;104367;-79
2024/03/09 00:44:39;;;;;;;54.20;24.67;;;;;;;-1.48;57.15;100929.77;123874;1099;104261;-79
2024/03/09 00:47:10;;;;;;;51.03;24.20;;;;;;;-1.45;56.98;100937.77;123873;1099;104369;-78
2024/03/09 00:49:42;;;;;;;52.33;23.70;;;;;;;-1.43;56.45;100929.26;123954;1099;104192;-78
2024/03/09 00:52:14;;;;;;;56.73;26.33;;;;;;;-1.48;57.15;100929.77;123983;1099;104605;-78
2024/03/09 00:54:45;;;;;;;53.47;24.53;;;;;;;-1.55;57.44;100934.22;123539;1098;104373;-79
2024/03/09 00:57:19;;;;;;;56.83;24.73;;;;;;;-1.59;57.93;100935.63;123839;1099;104280;-79
2024/03/09 00:59:54;;;;;;;53.58;23.75;;;;;;;-1.64;57.74;100930.05;123859;1099;104268;-78
2024/03/09 01:02:25;;;;;;;53.60;22.80;;;;;;;-1.68;57.63;100929.64;123643;1099;104238;-78
2024/03/09 01:04:56;;;;;;;48.47;22.43;;;;;;;-1.72;57.11;100932.69;123893;1099;104350;-78
2024/03/09 01:07:29;;;;;;;52.43;23.30;;;;;;;-1.74;58.36;100926.50;123838;1099;104415;-78
2024/03/09 01:10:00;;;;;;;54.77;24.03;;;;;;;-1.81;58.49;100931.09;124060;1099;104268;-78
2024/03/09 01:12:33;;;;;;;51.90;22.87;;;;;;;-1.82;57.92;100925.80;123791;1099;104265;-78
2024/03/09 01:15:06;;;;;;;55.33;24.43;;;;;;;-1.85;57.81;100928.09;123867;1099;104251;-78
2024/03/09 01:17:38;;;;;;;50.60;23.23;;;;;;;-1.89;57.29;100921.73;124071;1099;104224;-78
2024/03/09 01:20:12;;;;;;;58.00;24.27;;;;;;;-1.89;58.84;100932.03;124065;1098;104274;-79
2024/03/09 01:22:44;;;;;;;51.90;23.47;;;;;;;-1.89;58.43;100924.31;123813;1098;104366;-78
2024/03/09 01:25:15;;;;;;;52.10;22.45;;;;;;;-1.92;58.02;100924.03;123818;1099;104264;-78
2024/03/09 01:27:47;;;;;;;53.27;23.40;;;;;;;-1.89;57.54;100925.98;123756;1099;104246;-79
2024/03/09 01:30:18;;;;;;;53.73;23.70;;;;;;;-1.90;57.49;100924.17;123711;1099;104402;-78
2024/03/09 01:32:50;;;;;;;48.23;22.27;;;;;;;-1.92;57.77;100921.45;123982;1099;104357;-78
2024/03/09 01:35:23;;;;;;;52.23;22.83;;;;;;;-1.96;57.94;100921.96;123739;1099;104254;-78
2024/03/09 01:37:55;;;;;;;51.40;22.87;;;;;;;-1.97;58.06;100917.56;123721;1098;104319;-78
2024/03/09 01:40:27;;;;;;;53.35;23.00;;;;;;;-1.98;57.96;100923.46;123938;1099;104162;-78
2024/03/09 01:42:59;;;;;;;53.33;24.13;;;;;;;-1.99;58.43;100916.53;124068;1099;104460;-78
2024/03/09 01:45:30;;;;;;;51.65;22.50;;;;;;;-2.00;58.63;100917.28;124014;1099;104310;-78
2024/03/09 01:48:03;;;;;;;53.03;23.40;;;;;;;-2.04;58.47;100920.33;123980;1099;104235;-78
2024/03/09 01:50:37;;;;;;;52.83;22.77;;;;;;;-2.05;59.10;100921.11;124295;1099;104345;-78
2024/03/09 01:53:08;;;;;;;53.03;22.53;;;;;;;-2.05;58.46;100918.53;123810;1099;104233;-78
2024/03/09 01:55:41;;;;;;;51.67;22.50;;;;;;;-2.04;58.74;100917.75;123863;1099;104297;-78
2024/03/09 01:58:17;;;;;;;50.10;23.15;;;;;;;-2.03;58.29;100929.86;123645;1099;104274;-78
2024/03/09 02:00:56;;;;;;;49.27;23.73;;;;;;;-2.04;58.88;100923.82;123741;1099;104222;-78
2024/03/09 02:03:28;;;;;;;54.03;22.40;;;;;;;-2.06;58.65;100927.89;123423;1099;104322;-78
2024/03/09 02:05:59;;;;;;;52.75;24.20;;;;;;;-2.06;59.61;100929.58;123749;1099;104379;-78
2024/03/09 02:08:31;;;;;;;60.67;24.50;;;;;;;-2.09;59.33;100922.47;123696;1099;104258;-78
2024/03/09 02:11:03;;;;;;;56.87;22.43;;;;;;;-2.10;58.73;100924.90;123655;1099;104214;-78
2024/03/09 02:13:34;;;;;;;52.03;22.03;;;;;;;-2.12;58.67;100929.94;123688;1099;104380;-78
2024/03/09 02:16:06;;;;;;;54.70;23.90;;;;;;;-2.14;59.74;100933.11;123867;1099;104351;-78
2024/03/09 02:18:37;;;;;;;51.33;24.00;;;;;;;-2.15;59.46;100924.50;123752;1099;104242;-78
2024/03/09 02:21:09;;;;;;;53.33;23.43;;;;;;;-2.18;58.87;100932.83;123691;1099;104303;-78
2024/03/09 02:23:42;;;;;;;52.40;23.13;;;;;;;-2.19;59.89;100928.44;123722;1099;104254;-78
2024/03/09 02:26:15;;;;;;;49.53;23.10;;;;;;;-2.20;58.93;100931.79;123657;1099;104261;-78
2024/03/09 02:28:56;;;;;;;52.40;22.50;;;;;;;-2.20;58.54;100926.65;123808;1098;104344;-78
2024/03/09 02:31:27;;;;;;;50.50;23.17;;;;;;;-2.20;58.70;100929.22;123806;1099;104239;-78
2024/03/09 02:34:01;;;;;;;49.60;22.67;;;;;;;-2.23;59.68;100931.50;123750;1099;104306;-78
2024/03/09 02:36:31;;;;;;;;;;;;;;;-2.25;59.83;100927.86;123782;1099;104238;-78
2024/03/09 02:39:05;;;;;;;51.40;22.67;;;;;;;-2.24;59.84;100923.64;123842;1099;104223;-78
2024/03/09 02:41:36;;;;;;;55.88;23.25;;;;;;;-2.27;59.11;100919.11;123891;1099;104283;-78
2024/03/09 02:44:13;;;;;;;52.83;23.33;;;;;;;-2.28;60.41;100924.11;123624;1099;104367;-78
2024/03/09 02:46:44;;;;;;;53.53;23.50;;;;;;;-2.31;59.68;100922.14;123754;1098;104338;-78
2024/03/09 02:49:16;;;;;;;54.30;24.03;;;;;;;-2.32;59.01;100919.44;123708;1099;104249;-78
2024/03/09 02:51:48;;;;;;;51.07;23.70;;;;;;;-2.32;59.98;100920.36;123728;1099;104341;-78
2024/03/09 02:54:19;;;;;;;52.17;21.90;;;;;;;-2.33;59.82;100918.53;123786;1099;104650;-78
2024/03/09 02:56:51;;;;;;;50.93;23.60;;;;;;;-2.33;60.17;100907.36;123778;1099;104216;-78
2024/03/09 02:59:22;;;;;;;52.70;23.27;;;;;;;-2.36;59.49;100910.54;123812;1099;104338;-78
2024/03/09 03:01:53;;;;;;;48.30;22.37;;;;;;;-2.38;60.47;100909.50;123671;1098;104309;-78
2024/03/09 03:04:25;;;;;;;56.50;24.23;;;;;;;-2.37;59.71;100908.72;123386;1099;104296;-78
2024/03/09 03:06:57;;;;;;;53.67;22.90;;;;;;;-2.41;59.70;100904.97;123749;1098;104693;-78
2024/03/09 03:09:28;;;;;;;51.60;21.37;;;;;;;-2.43;59.30;100905.58;123470;1099;104262;-78
2024/03/09 03:11:59;;;;;;;48.67;21.70;;;;;;;-2.43;60.77;100910.72;123685;1099;104341;-78
2024/03/09 03:14:31;;;;;;;54.27;22.83;;;;;;;-2.46;60.72;100906.21;123775;1099;104293;-78
2024/03/09 03:17:06;;;;;;;51.73;22.37;;;;;;;-2.48;59.97;100902.57;123744;1099;104309;-78
2024/03/09 03:19:38;;;;;;;52.60;23.67;;;;;;;-2.49;60.94;100905.92;123760;1099;104237;-78
2024/03/09 03:22:10;;;;;;;54.83;23.40;;;;;;;-2.50;61.25;100901.53;123867;1099;104272;-79
2024/03/09 03:24:41;;;;;;;50.43;22.43;;;;;;;-2.51;60.12;100893.69;123476;1099;104322;-79
2024/03/09 03:27:12;;;;;;;49.10;22.13;;;;;;;-2.52;60.44;100895.36;123724;1099;104312;-78
2024/03/09 03:29:44;;;;;;;55.23;22.90;;;;;;;-2.53;60.37;100886.72;123709;1099;104335;-78
2024/03/09 03:32:16;;;;;;;52.50;22.63;;;;;;;-2.54;61.08;100890.08;123764;1099;104309;-78
2024/03/09 03:34:49;;;;;;;50.00;21.50;;;;;;;-2.53;60.67;100891.86;123915;1098;104616;-79
2024/03/09 03:37:20;;;;;;;54.33;23.03;;;;;;;-2.53;60.87;100891.86;123734;1099;104345;-78
2024/03/09 03:39:51;;;;;;;57.70;23.25;;;;;;;-2.53;61.61;100889.30;123542;1099;104315;-78
2024/03/09 03:42:22;;;;;;;57.77;23.23;;;;;;;-2.55;61.54;100890.83;123780;1099;104307;-77
2024/03/09 03:44:53;;;;;;;55.80;22.60;;;;;;;-2.58;61.00;100885.39;123665;1099;104268;-78
2024/03/09 03:47:25;;;;;;;52.43;22.20;;;;;;;-2.60;61.12;100893.70;123676;1099;104337;-77
2024/03/09 03:49:56;;;;;;;53.23;22.53;;;;;;;-2.61;61.07;100894.49;123654;1099;104351;-79
2024/03/09 03:52:27;;;;;;;54.47;23.13;;;;;;;-2.63;62.01;100889.20;123559;1099;104367;-79
2024/03/09 03:54:58;;;;;;;47.80;21.50;;;;;;;-2.62;62.76;100890.99;123777;1099;104257;-78
2024/03/09 03:57:29;;;;;;;46.40;20.67;;;;;;;-2.59;62.14;100891.28;123779;1099;104610;-78
2024/03/09 04:00:00;;;;;;;43.80;20.53;;;;;;;-2.57;62.66;100891.43;123832;1098;104338;-78
2024/03/09 04:02:33;;;;;;;49.57;21.83;;;;;;;-2.55;62.02;100885.69;123793;1099;104222;-78
2024/03/09 04:05:07;;;;;;;54.90;22.77;;;;;;;-2.53;62.67;100893.54;123427;1099;104387;-78
2024/03/09 04:07:40;;;;;;;50.98;21.80;;;;;;;-2.52;61.41;100887.65;123745;1098;104312;-79
2024/03/09 04:10:13;;;;;;;52.30;23.05;;;;;;;-2.53;62.62;100888.40;123523;1099;105605;-78
2024/03/09 04:12:45;;;;;;;47.93;21.67;;;;;;;-2.54;62.38;100892.64;123962;1099;104188;-78
2024/03/09 04:15:17;;;;;;;51.73;21.87;;;;;;;-2.52;62.65;100890.22;123736;1099;104362;-79
2024/03/09 04:17:48;;;;;;;51.23;20.93;;;;;;;-2.51;62.35;100894.58;123683;1099;104341;-80
2024/03/09 04:20:19;;;;;;;52.83;23.17;;;;;;;-2.50;62.79;100903.21;123718;1098;104262;-78
2024/03/09 04:22:51;;;;;;;50.77;22.20;;;;;;;-2.51;62.99;100898.82;123588;1098;104246;-79
2024/03/09 04:25:22;;;;;;;54.10;22.03;;;;;;;-2.51;62.17;100898.82;123731;1099;104264;-79
2024/03/09 04:27:55;;;;;;;51.60;21.90;;;;;;;-2.50;63.35;100895.50;123406;1098;104249;-79
2024/03/09 04:30:26;;;;;;;52.73;22.27;;;;;;;-2.49;62.51;100907.56;123747;1099;104296;-78
2024/03/09 04:33:02;;;;;;;49.17;21.53;;;;;;;-2.49;62.05;100905.00;123922;1098;104238;-78
2024/03/09 04:35:33;;;;;;;53.40;22.23;;;;;;;-2.47;62.53;100906.07;123786;1099;104172;-79
2024/03/09 04:38:05;;;;;;;49.83;22.10;;;;;;;-2.42;62.06;100912.53;123700;1098;104265;-79
2024/03/09 04:40:37;;;;;;;54.33;22.10;;;;;;;-2.42;62.27;100909.97;123693;1099;104296;-79
2024/03/09 04:43:09;;;;;;;51.87;21.67;;;;;;;-2.42;62.88;100913.43;123554;1098;104265;-78
2024/03/09 04:45:40;;;;;;;50.40;21.47;;;;;;;-2.42;62.33;100917.67;123626;1099;104338;-79
2024/03/09 04:48:13;;;;;;;53.47;23.13;;;;;;;-2.42;63.02;100912.53;123650;1099;104213;-78
2024/03/09 04:50:46;;;;;;;50.93;21.73;;;;;;;-2.42;62.93;100917.67;123738;1099;104264;-78
2024/03/09 04:53:18;;;;;;;52.03;22.43;;;;;;;-2.41;62.39;100915.25;123736;1099;104258;-78
2024/03/09 04:55:51;;;;;;;46.70;20.90;;;;;;;-2.38;63.21;100914.64;123653;1098;104532;-78
2024/03/09 04:58:22;;;;;;;49.75;20.60;;;;;;;-2.33;63.12;100926.25;123770;1098;104271;-78
2024/03/09 05:00:54;;;;;;;52.17;22.13;;;;;;;-2.32;63.02;100925.50;123429;1099;104232;-79
2024/03/09 05:03:27;;;;;;;52.13;22.07;;;;;;;-2.31;62.74;100935.00;123778;1099;104711;-78
2024/03/09 05:05:58;;;;;;;51.83;22.77;;;;;;;-2.28;62.92;100931.82;123811;1099;104271;-79
2024/03/09 05:08:29;;;;;;;56.43;23.00;;;;;;;-2.25;62.57;100930.43;123542;1099;104341;-79
2024/03/09 05:11:01;;;;;;;56.23;23.70;;;;;;;-2.20;63.92;100933.44;123748;1099;104265;-79
2024/03/09 05:13:32;;;;;;;48.77;21.87;;;;;;;-2.18;63.55;100937.97;123767;1099;110972;-79
2024/03/09 05:16:03;;;;;;;53.63;23.37;;;;;;;-2.13;63.60;100946.11;123789;1099;104348;-79
2024/03/09 05:18:34;;;;;;;59.87;24.63;;;;;;;-2.09;63.06;100942.14;123556;1099;104304;-78
2024/03/09 05:21:06;;;;;;;50.67;22.60;;;;;;;-2.06;63.69;100940.75;123787;1099;104414;-79
2024/03/09 05:23:39;;;;;;;52.77;22.20;;;;;;;-2.00;63.03;100940.43;123713;1099;104357;-78
2024/03/09 05:26:12;;;;;;;54.87;22.63;;;;;;;-1.95;63.54;100943.42;123765;1099;104699;-79
2024/03/09 05:28:43;;;;;;;58.67;22.37;;;;;;;-1.90;63.21;100942.17;123766;1099;104265;-79
2024/03/09 05:31:26;;;;;;;49.97;21.73;;;;;;;-1.85;63.45;100946.99;123779;1099;104384;-78
2024/03/09 05:33:58;;;;;;;53.30;22.23;;;;;;;-1.79;63.31;100950.88;123806;1099;107568;-78
2024/03/09 05:36:29;;;;;;;53.03;22.07;;;;;;;-1.73;63.87;100959.17;123849;1099;104817;-78
2024/03/09 05:39:01;;;;;;;50.40;22.53;;;;;;;-1.67;63.48;100959.73;123849;1099;104338;-79
2024/03/09 05:41:32;;;;;;;51.10;22.93;;;;;;;-1.57;63.94;100958.89;123915;1099;104344;-79
2024/03/09 05:44:04;;;;;;;49.00;22.80;;;;;;;-1.52;63.76;100958.56;123907;1099;104428;-79
2024/03/09 05:46:35;;;;;;;57.00;23.93;;;;;;;-1.42;63.33;100964.55;123927;1099;104239;-78
2024/03/09 05:49:08;;;;;;;53.00;22.93;;;;;;;-1.35;63.46;100962.66;123956;1099;104351;-79
2024/03/09 05:51:39;;;;;;;59.43;23.70;;;;;;;-1.30;63.78;100958.83;123881;1099;104733;-79
2024/03/09 05:54:11;;;;;;;54.67;22.67;;;;;;;-1.22;64.00;100966.34;123808;1099;104252;-78
2024/03/09 05:56:42;;;;;;;47.30;22.10;;;;;;;-1.16;63.61;100959.17;123631;1099;104399;-79
2024/03/09 05:59:13;;;;;;;52.07;23.23;;;;;;;-1.06;63.55;100955.73;123807;1099;104270;-78
2024/03/09 06:01:45;;;;;;;51.47;21.43;;;;;;;-0.97;63.67;100957.45;123684;1098;104319;-78
2024/03/09 06:04:16;;;;;;;50.90;22.45;;;;;;;-0.87;63.61;100954.05;123800;1099;104271;-78
2024/03/09 06:06:48;;;;;;;55.00;24.00;;;;;;;-0.76;64.08;100954.98;123910;1099;104319;-79
2024/03/09 06:09:20;;;;;;;48.57;22.23;;;;;;;-0.65;64.38;100961.98;123795;1098;104869;-79
2024/03/09 06:11:52;;;;;;;52.60;23.67;;;;;;;-0.53;64.89;100956.08;123932;1099;104251;-79
2024/03/09 06:14:23;;;;;;;51.47;22.97;;;;;;;-0.45;64.02;100958.56;123904;1099;104270;-78
2024/03/09 06:16:55;;;;;;;54.63;24.27;;;;;;;-0.33;64.82;100963.86;123918;1099;104267;-79
2024/03/09 06:19:26;;;;;;;52.73;22.37;;;;;;;-0.22;64.30;100967.37;124072;1099;104172;-79
2024/03/09 06:21:57;;;;;;;52.97;23.17;;;;;;;-0.09;64.02;100966.77;124345;1099;104315;-79
2024/03/09 06:24:32;;;;;;;47.63;21.50;;;;;;;0.06;64.64;100962.88;124245;1099;104345;-79
2024/03/09 06:27:04;;;;;;;48.47;22.10;;;;;;;0.23;64.47;100963.42;123920;1099;104376;-79
2024/03/09 06:29:37;;;;;;;53.35;22.05;;;;;;;0.34;64.26;100960.05;123836;1099;104748;-80
2024/03/09 06:32:09;;;;;;;50.67;22.77;;;;;;;0.47;64.57;100967.17;123847;1099;104269;-79
2024/03/09 06:34:47;;;;;;;49.15;22.30;;;;;;;0.60;64.75;100963.92;123816;1099;104499;-79
2024/03/09 06:37:18;;;;;;;48.05;22.20;;;;;;;0.72;64.51;100964.94;123843;1099;104270;-80
2024/03/09 06:39:50;;;;;;;50.40;22.17;;;;;;;0.83;64.51;100961.54;123891;1099;104363;-79
2024/03/09 06:42:21;;;;;;;50.77;21.27;;;;;;;0.98;64.56;100971.31;123854;1099;104395;-78
2024/03/09 06:44:53;;;;;;;50.87;21.37;;;;;;;1.14;64.27;100968.28;123501;1099;104226;-78
2024/03/09 06:47:25;;;;;;;51.40;22.23;;;;;;;1.27;64.30;100965.03;123836;1099;104306;-78
2024/03/09 06:49:56;;;;;;;44.65;20.90;;;;;;;1.37;64.46;100968.47;123364;1099;104258;-78
2024/03/09 06:52:28;;;;;;;47.83;22.47;;;;;;;1.53;64.23;100968.00;123733;1099;104271;-79
2024/03/09 06:55:00;;;;;;;47.70;22.87;;;;;;;1.65;64.16;100970.63;123355;1099;104312;-78
2024/03/09 06:57:35;;;;;;;46.60;21.40;;;;;;;1.82;64.34;100969.37;123453;1099;104284;-79
2024/03/09 07:00:13;;;;;;;51.43;21.57;;;;;;;1.96;64.24;100966.20;123815;1099;104226;-78
2024/03/09 07:02:45;;;;;;;47.17;21.03;;;;;;;2.10;63.91;100967.27;123481;1099;104373;-79
2024/03/09 07:05:17;;;;;;;47.05;21.55;;;;;;;2.25;63.59;100972.69;123850;1098;104268;-79
2024/03/09 07:07:48;;;;;;;49.20;21.73;;;;;;;2.41;64.43;100972.16;123775;1099;104268;-79
2024/03/09 07:10:19;;;;;;;51.77;23.33;;;;;;;2.53;63.95;100976.49;123746;1099;104172;-79
2024/03/09 07:12:51;;;;;;;47.03;21.43;;;;;;;2.61;63.73;100963.31;123917;1099;104344;-79
2024/03/09 07:15:25;;;;;;;49.03;21.63;;;;;;;2.74;63.14;100962.52;123918;1099;104258;-79
2024/03/09 07:17:56;;;;;;;48.98;20.90;;;;;;;2.91;63.34;100963.77;123958;1099;104296;-79
2024/03/09 07:20:28;;;;;;;45.80;21.10;;;;;;;3.05;63.25;100967.38;123746;1099;104287;-80
2024/03/09 07:22:59;;;;;;;48.33;20.97;;;;;;;3.20;63.59;100965.91;124009;1099;104223;-80
2024/03/09 07:25:31;;;;;;;48.00;20.20;;;;;;;3.38;62.82;100963.76;123820;1098;104290;-80
2024/03/09 07:28:02;;;;;;;44.53;20.97;;;;;;;3.53;62.81;100969.13;124066;1098;104316;-80
2024/03/09 07:30:33;;;;;;;42.37;19.67;;;;;;;3.69;62.82;100967.62;123916;1099;104184;-79
2024/03/09 07:33:05;;;;;;;46.33;19.87;;;;;;;3.82;62.27;100961.59;123918;1099;104226;-80
2024/03/09 07:35:37;;;;;;;42.97;19.50;;;;;;;3.98;62.36;100960.98;123910;1099;104360;-80
2024/03/09 07:38:09;;;;;;;44.00;19.43;;;;;;;4.10;62.16;100959.23;123825;1098;104307;-79
2024/03/09 07:40:43;;;;;;;42.80;20.53;;;;;;;4.22;61.75;100962.65;123839;1099;104357;-80
2024/03/09 07:43:17;;;;;;;43.47;19.63;;;;;;;4.34;62.56;100957.41;123872;1099;104406;-80
2024/03/09 07:45:49;;;;;;;42.93;20.07;;;;;;;4.42;61.41;100960.52;123554;1099;104248;-80
2024/03/09 07:48:20;;;;;;;41.53;18.83;;;;;;;4.53;61.26;100956.94;123820;1099;104245;-78
2024/03/09 07:50:51;;;;;;;44.27;21.13;;;;;;;4.62;60.95;100951.47;123994;1098;104409;-79
2024/03/09 07:53:22;;;;;;;39.83;18.43;;;;;;;4.74;61.47;100956.59;123526;1099;104357;-79
2024/03/09 07:55:54;;;;;;;43.73;17.97;;;;;;;4.87;61.17;100959.19;123777;1099;104320;-79
2024/03/09 07:58:26;;;;;;;38.87;17.40;;;;;;;4.97;60.56;100948.60;123907;1099;104318;-79
2024/03/09 08:00:57;;;;;;;40.65;18.70;;;;;;;5.06;61.46;100953.48;123895;1098;104271;-80
2024/03/09 08:03:32;;;;;;;37.30;17.33;;;;;;;5.19;60.22;100948.28;123754;1099;104280;-79
2024/03/09 08:06:04;;;;;;;38.33;17.23;;;;;;;5.31;60.40;100949.86;123821;1099;104395;-79
2024/03/09 08:08:35;;;;;;;38.87;18.10;;;;;;;5.42;59.78;100953.16;124000;1099;104670;-79
2024/03/09 08:11:09;;;;;;;37.53;18.13;;;;;;;5.51;60.02;100951.14;123567;1099;104258;-79
2024/03/09 08:13:43;;;;;;;36.05;16.52;;;;;;;5.60;60.12;100943.91;123554;1099;104341;-79
2024/03/09 08:16:14;;;;;;;36.20;17.30;;;;;;;5.67;59.89;100943.50;123976;1099;104267;-78
2024/03/09 08:18:46;;;;;;;32.30;15.50;;;;;;;5.78;59.72;100946.77;123888;1099;104339;-78
2024/03/09 08:21:17;;;;;;;31.63;15.20;;;;;;;5.90;58.89;100944.89;123826;1099;104352;-78
2024/03/09 08:23:48;;;;;;;35.50;15.30;;;;;;;6.02;59.14;100944.80;123957;1099;104242;-80
2024/03/09 08:26:20;;;;;;;32.70;15.17;;;;;;;6.14;58.39;100947.26;123966;1099;104223;-79
2024/03/09 08:28:52;;;;;;;31.83;14.73;;;;;;;6.23;58.58;100949.50;123947;1098;104242;-79
2024/03/09 08:31:24;;;;;;;30.57;14.20;;;;;;;6.30;57.68;100933.44;123960;1099;104265;-78
2024/03/09 08:33:56;;;;;;;31.80;15.77;;;;;;;6.36;57.12;100925.98;123924;1098;104307;-78
2024/03/09 08:36:28;;;;;;;30.40;14.90;;;;;;;6.41;57.10;100929.75;123881;1099;104334;-78
2024/03/09 08:39:00;;;;;;;31.10;14.07;;;;;;;6.48;57.72;100926.70;123945;1099;104274;-79
2024/03/09 08:41:32;;;;;;;27.40;13.40;;;;;;;6.55;57.08;100917.53;123867;1099;104386;-79
2024/03/09 08:44:03;;;;;;;25.73;12.50;;;;;;;6.60;56.31;100921.30;123963;1099;104264;-78
2024/03/09 08:46:35;;;;;;;26.57;12.87;;;;;;;6.69;56.28;100915.73;123949;1099;104242;-78
2024/03/09 08:49:06;;;;;;;26.70;12.80;;;;;;;6.78;56.26;100913.66;123805;1099;104274;-79
2024/03/09 08:51:38;;;;;;;26.50;11.63;;;;;;;6.86;55.77;100914.09;123958;1099;104322;-78
2024/03/09 08:54:10;;;;;;;26.83;12.67;;;;;;;6.90;54.69;100922.98;124027;1099;104492;-78
2024/03/09 08:56:41;;;;;;;24.90;12.13;;;;;;;6.96;55.52;100912.90;123593;1099;104329;-79
2024/03/09 08:59:12;;;;;;;44.43;15.10;;;;;;;7.06;55.46;100906.48;124002;1099;104252;-79
2024/03/09 09:01:43;;;;;;;27.13;12.13;;;;;;;7.17;55.09;100916.72;124100;1099;104236;-79
2024/03/09 09:04:14;;;;;;;26.40;13.07;;;;;;;7.19;54.75;100906.37;124044;1099;104421;-79
2024/03/09 09:06:46;;;;;;;26.80;12.63;;;;;;;7.27;55.29;100906.80;123985;1099;104306;-80
2024/03/09 09:09:24;;;;;;;26.60;12.80;;;;;;;7.33;54.89;100899.30;123937;1099;104245;-80
2024/03/09 09:11:56;;;;;;;26.83;11.57;;;;;;;7.36;54.51;100905.58;123720;1099;104251;-79
2024/03/09 09:14:28;;;;;;;26.77;12.17;;;;;;;7.41;53.80;100895.39;123652;1099;104321;-78
2024/03/09 09:17:06;;;;;;;24.13;11.47;;;;;;;7.43;54.27;100898.97;123925;1099;104277;-79
2024/03/09 09:19:37;;;;;;;25.90;12.90;;;;;;;7.48;54.21;100900.14;123976;1099;104290;-78
2024/03/09 09:22:10;;;;;;;26.30;12.70;;;;;;;7.52;53.57;100893.36;123856;1099;104345;-79
2024/03/09 09:24:41;;;;;;;24.73;11.60;;;;;;;7.54;53.32;100891.72;124016;1099;104797;-78
2024/03/09 09:27:13;;;;;;;23.63;11.83;;;;;;;7.51;51.33;100889.87;123928;1099;104269;-78
2024/03/09 09:29:44;;;;;;;25.10;11.90;;;;;;;7.54;52.04;100896.95;124060;1099;104338;-79
2024/03/09 09:32:16;;;;;;;25.77;12.50;;;;;;;7.55;52.30;100883.97;124027;1099;104291;-79
2024/03/09 09:34:48;;;;;;;26.40;12.37;;;;;;;7.55;50.80;100885.70;123924;1099;104300;-79
2024/03/09 09:37:19;;;;;;;23.93;11.67;;;;;;;7.60;51.75;100880.72;124133;1099;104283;-79
2024/03/09 09:39:51;;;;;;;25.00;11.60;;;;;;;7.71;52.40;100876.96;124103;1099;104223;-79
2024/03/09 09:42:22;;;;;;;26.27;13.00;;;;;;;7.78;51.71;100881.70;124025;1099;104264;-80
2024/03/09 09:44:54;;;;;;;25.70;12.33;;;;;;;7.78;50.76;100881.70;124319;1099;104310;-77
2024/03/09 09:47:27;;;;;;;28.37;12.20;;;;;;;7.79;51.84;100882.59;124044;1099;104287;-78
2024/03/09 09:50:00;;;;;;;28.17;12.82;;;;;;;7.86;51.17;100872.55;124131;1099;104307;-81
2024/03/09 09:52:33;;;;;;;28.03;12.30;;;;;;;7.98;51.17;100881.84;124188;1098;104239;-78
2024/03/09 09:55:06;;;;;;;25.23;11.95;;;;;;;8.03;51.48;100880.39;124073;1099;104274;-78
2024/03/09 09:57:39;;;;;;;24.90;11.93;;;;;;;8.05;50.50;100873.52;123937;1099;104351;-78
2024/03/09 10:00:13;;;;;;;23.73;10.80;;;;;;;8.07;50.25;100871.86;124239;1099;104288;-80
2024/03/09 10:02:44;;;;;;;24.52;11.05;;;;;;;8.12;50.56;100869.48;124704;1098;104299;-79
2024/03/09 10:05:17;;;;;;;24.23;10.27;;;;;;;8.10;49.24;100874.64;124151;1098;104267;-78
2024/03/09 10:07:59;;;;;;;24.17;11.37;;;;;;;8.10;50.14;100869.41;124541;1099;104197;-79
2024/03/09 10:10:32;;;;;;;25.20;11.93;;;;;;;8.12;48.75;100867.80;125258;1099;104344;-78
2024/03/09 10:13:13;;;;;;;23.95;11.30;;;;;;;8.16;49.88;100861.88;124304;1098;104354;-78
2024/03/09 10:15:48;;;;;;;24.37;11.60;;;;;;;8.21;49.60;100849.97;124457;1098;104265;-79
2024/03/09 10:18:21;;;;;;;24.57;11.97;;;;;;;8.28;49.86;100859.89;124203;1099;104238;-78
2024/03/09 10:20:52;;;;;;;24.60;11.37;;;;;;;8.31;49.35;100850.44;124360;1099;104236;-78
2024/03/09 10:23:23;;;;;;;27.50;12.47;;;;;;;8.30;48.46;100852.12;123997;1099;104309;-79
2024/03/09 10:26:06;;;;;;;23.70;10.93;;;;;;;8.34;49.05;100842.74;124011;1099;104326;-79
2024/03/09 10:28:40;;;;;;;25.70;11.83;;;;;;;8.40;48.79;100848.28;124011;1099;104245;-77
2024/03/09 10:31:12;;;;;;;24.43;11.73;;;;;;;8.44;48.55;100845.02;124108;1099;104259;-78
2024/03/09 10:33:43;;;;;;;25.77;11.70;;;;;;;8.44;48.61;100851.13;124156;1099;104249;-79
2024/03/09 10:36:17;;;;;;;23.20;11.13;;;;;;;8.49;48.02;100846.13;124106;1099;104317;-78
2024/03/09 10:38:51;;;;;;;27.63;11.43;;;;;;;8.55;48.93;100838.58;123996;1099;104223;-78
2024/03/09 10:41:24;;;;;;;25.37;11.28;;;;;;;8.63;47.28;100834.65;124472;1099;104319;-78
2024/03/09 10:43:57;;;;;;;23.87;11.53;;;;;;;8.61;48.42;100831.04;124211;1099;104274;-80
2024/03/09 10:46:32;;;;;;;24.23;11.27;;;;;;;8.68;48.37;100840.11;124124;1099;104390;-78
2024/03/09 10:49:06;;;;;;;25.10;11.13;;;;;;;8.69;47.69;100830.53;124158;1099;104281;-79
2024/03/09 10:51:46;;;;;;;22.70;9.77;;;;;;;8.75;47.85;100825.59;124237;1099;104466;-79
2024/03/09 10:54:24;;;;;;;23.90;11.13;;;;;;;8.78;47.60;100829.24;123977;1099;104319;-79
2024/03/09 10:56:55;;;;;;;23.17;11.27;;;;;;;8.81;47.58;100818.92;124172;1099;104658;-79
2024/03/09 10:59:27;;;;;;;24.97;11.03;;;;;;;8.88;47.53;100816.60;124101;1099;104322;-80
2024/03/09 11:02:00;;;;;;;23.40;10.23;;;;;;;8.95;47.63;100813.47;124290;1099;104351;-79
2024/03/09 11:04:36;;;;;;;34.65;11.70;;;;;;;8.96;46.99;100821.39;124175;1099;104245;-79
2024/03/09 11:07:07;;;;;;;21.27;9.87;;;;;;;8.98;46.88;100814.49;124241;1099;104351;-81
2024/03/09 11:09:39;;;;;;;22.27;10.70;;;;;;;9.06;47.03;100811.35;124194;1098;104284;-79
2024/03/09 11:12:11;;;;;;;22.50;9.70;;;;;;;9.11;47.25;100815.07;124242;1099;104716;-79
2024/03/09 11:14:53;;;;;;;22.20;11.00;;;;;;;9.08;46.25;100804.45;124048;1099;104429;-80
2024/03/09 11:17:34;;;;;;;22.37;10.30;;;;;;;9.10;46.48;100803.71;124062;1099;104254;-79
2024/03/09 11:20:07;;;;;;;24.90;11.93;;;;;;;9.05;45.52;100805.20;123939;1099;104223;-78